Taisho Maru — JI3307 — position and weather

sailwx.info

Track history (hours):
 
Tides and Currents Weather Stations Pressure Air Temp Water Temp Dewpoint Dewpoint Depression Visibility Wind Speed Wind Dir Waves Ship Positions

Taisho Maru

Last reported at 2015-Mar-28 21:04 UTC. Time now 2015-Mar-29 04:22 UTC.
Position N 33°57' E 134°55'.

Length 93 m; draft 4.8 m.

Type: Cargo ship. MMSI: 431300084.

Date/timePositionNaut miles runAvg speedWind from/ knotsBaromVisibWave heightAir tempDewpointWater temp
2015-Mar-28 21:04N 33°57' E 134°55'714.4
2015-Mar-28 20:33N 34°04' E 134°57'1413.6
2015-Mar-28 19:33N 34°18' E 134°59'1312.9
2015-Mar-28 18:33N 34°28' E 135°08'1414.3
2015-Mar-28 17:33N 34°37' E 135°22'5 4.6
2015-Mar-28 16:27N 34°40' E 135°27'0 0.0
2015-Mar-28 15:27N 34°40' E 135°27'0 0.0
2015-Mar-28 14:33N 34°40' E 135°27'0 0.0
2015-Mar-28 12:21N 34°40' E 135°27'0 0.0
2015-Mar-28 10:27N 34°40' E 135°27'0 0.0
2015-Mar-28 09:27N 34°40' E 135°27'0 0.0
2015-Mar-28 08:33N 34°40' E 135°27'0 0.0
2015-Mar-28 07:33N 34°40' E 135°27'4 4.3
2015-Mar-28 06:33N 34°38' E 135°22'3 3.0
2015-Mar-28 05:32N 34°36' E 135°19'5 5.0
2015-Mar-28 04:33N 34°35' E 135°14'1312.1
2015-Mar-28 03:30N 34°37' E 134°58'1312.2
2015-Mar-28 02:26N 34°40' E 134°43'6 0.2
2015-Mar-26 19:33N 34°39' E 134°50'1313.6
2015-Mar-26 18:34N 34°34' E 135°06'1514.6
2015-Mar-26 17:32N 34°20' E 135°01'1414.6
2015-Mar-26 16:33N 34°06' E 134°59'  
2015-Mar-24 01:12N 33°56' E 134°60'812.6
2015-Mar-24 00:33N 34°04' E 135°01'1211.7
2015-Mar-23 23:34N 34°14' E 135°06'1 1.5
2015-Mar-23 22:34N 34°14' E 135°08'0 0.0
2015-Mar-23 21:33N 34°14' E 135°08'0 0.0
2015-Mar-23 20:33N 34°14' E 135°08'0 0.0
2015-Mar-23 19:32N 34°14' E 135°08'0 0.0
2015-Mar-23 18:33N 34°14' E 135°08'0 0.0
2015-Mar-23 17:33N 34°14' E 135°08'0 0.0
2015-Mar-23 16:33N 34°14' E 135°08'0 0.0
2015-Mar-23 15:33N 34°14' E 135°08'0 0.0
2015-Mar-23 14:33N 34°14' E 135°08'0 0.0
2015-Mar-23 13:33N 34°14' E 135°08'0 0.0
2015-Mar-23 12:33N 34°14' E 135°08'0 0.0
2015-Mar-23 11:33N 34°14' E 135°08'0 0.0
2015-Mar-23 10:32N 34°14' E 135°08'0 0.0
2015-Mar-23 09:33N 34°14' E 135°08'0 0.0
2015-Mar-23 08:33N 34°14' E 135°08'0 0.0
2015-Mar-23 07:33N 34°14' E 135°08'0 0.0
2015-Mar-23 06:33N 34°14' E 135°08'2 1.9
2015-Mar-23 05:33N 34°14' E 135°06'8 1.3
2015-Mar-22 23:32N 34°07' E 135°08'10 7.3
2015-Mar-22 22:11N 34°00' E 134°60'4 4.1
2015-Mar-22 21:08N 33°57' E 134°56'  
Track history (hours):
 
Tides and Currents Weather Stations Pressure Air Temp Water Temp Dewpoint Dewpoint Depression Visibility Wind Speed Wind Dir Waves Ship Positions

Taisho Maru

Last reported at 2015-Mar-28 21:04 UTC. Time now 2015-Mar-29 04:22 UTC.
Position N 33°57' E 134°55'.

Length 93 m; draft 4.8 m.

Type: Cargo ship. MMSI: 431300084.

Date/timePositionNaut miles runAvg speedWind from/ knotsBaromVisibWave heightAir tempDewpointWater temp
2015-Mar-28 21:04N 33°57' E 134°55'714.4
2015-Mar-28 20:33N 34°04' E 134°57'1413.6
2015-Mar-28 19:33N 34°18' E 134°59'1312.9
2015-Mar-28 18:33N 34°28' E 135°08'1414.3
2015-Mar-28 17:33N 34°37' E 135°22'5 4.6
2015-Mar-28 16:27N 34°40' E 135°27'0 0.0
2015-Mar-28 15:27N 34°40' E 135°27'0 0.0
2015-Mar-28 14:33N 34°40' E 135°27'0 0.0
2015-Mar-28 12:21N 34°40' E 135°27'0 0.0
2015-Mar-28 10:27N 34°40' E 135°27'0 0.0
2015-Mar-28 09:27N 34°40' E 135°27'0 0.0
2015-Mar-28 08:33N 34°40' E 135°27'0 0.0
2015-Mar-28 07:33N 34°40' E 135°27'4 4.3
2015-Mar-28 06:33N 34°38' E 135°22'3 3.0
2015-Mar-28 05:32N 34°36' E 135°19'5 5.0
2015-Mar-28 04:33N 34°35' E 135°14'1312.1
2015-Mar-28 03:30N 34°37' E 134°58'1312.2
2015-Mar-28 02:26N 34°40' E 134°43'6 0.2
2015-Mar-26 19:33N 34°39' E 134°50'1313.6
2015-Mar-26 18:34N 34°34' E 135°06'1514.6
2015-Mar-26 17:32N 34°20' E 135°01'1414.6
2015-Mar-26 16:33N 34°06' E 134°59'  
2015-Mar-24 01:12N 33°56' E 134°60'812.6
2015-Mar-24 00:33N 34°04' E 135°01'1211.7
2015-Mar-23 23:34N 34°14' E 135°06'1 1.5
2015-Mar-23 22:34N 34°14' E 135°08'0 0.0
2015-Mar-23 21:33N 34°14' E 135°08'0 0.0
2015-Mar-23 20:33N 34°14' E 135°08'0 0.0
2015-Mar-23 19:32N 34°14' E 135°08'0 0.0
2015-Mar-23 18:33N 34°14' E 135°08'0 0.0
2015-Mar-23 17:33N 34°14' E 135°08'0 0.0
2015-Mar-23 16:33N 34°14' E 135°08'0 0.0
2015-Mar-23 15:33N 34°14' E 135°08'0 0.0
2015-Mar-23 14:33N 34°14' E 135°08'0 0.0
2015-Mar-23 13:33N 34°14' E 135°08'0 0.0
2015-Mar-23 12:33N 34°14' E 135°08'0 0.0
2015-Mar-23 11:33N 34°14' E 135°08'0 0.0
2015-Mar-23 10:32N 34°14' E 135°08'0 0.0
2015-Mar-23 09:33N 34°14' E 135°08'0 0.0
2015-Mar-23 08:33N 34°14' E 135°08'0 0.0
2015-Mar-23 07:33N 34°14' E 135°08'0 0.0
2015-Mar-23 06:33N 34°14' E 135°08'2 1.9
2015-Mar-23 05:33N 34°14' E 135°06'8 1.3
2015-Mar-22 23:32N 34°07' E 135°08'10 7.3
2015-Mar-22 22:11N 34°00' E 134°60'4 4.1
2015-Mar-22 21:08N 33°57' E 134°56'  

Dump ship's entire track history